createdAt,value
2022-10-10T00:02:29.489Z,101889.59
2022-10-10T00:05:00.110Z,101889.59
2022-10-10T00:07:30.400Z,101882.16
2022-10-10T00:10:00.501Z,101895.13
2022-10-10T00:12:30.456Z,101890.19
2022-10-10T00:15:00.565Z,101895.03
2022-10-10T00:17:31.050Z,101899.97
2022-10-10T00:20:01.476Z,101901.28
2022-10-10T00:22:31.436Z,101893.09
2022-10-10T00:25:01.477Z,101887.00
2022-10-10T00:27:31.526Z,101888.09
2022-10-10T00:30:01.752Z,101907.06
2022-10-10T00:32:31.683Z,101886.34
2022-10-10T00:35:01.825Z,101887.78
2022-10-10T00:37:31.876Z,101890.88
2022-10-10T00:40:01.895Z,101894.63
2022-10-10T00:42:32.383Z,101891.38
2022-10-10T00:45:29.216Z,101900.03
2022-10-10T00:48:06.919Z,101883.06
2022-10-10T00:50:44.866Z,101897.59
2022-10-10T00:53:17.650Z,101892.06
2022-10-10T00:55:49.175Z,101899.88
2022-10-10T00:58:20.703Z,101897.72
2022-10-10T01:00:51.266Z,101892.44
2022-10-10T01:03:22.051Z,101887.97
2022-10-10T01:05:53.042Z,101877.53
2022-10-10T01:08:24.515Z,101875.19
2022-10-10T01:11:42.049Z,101872.91
2022-10-10T01:14:30.789Z,101873.50
2022-10-10T01:17:32.010Z,101875.66
2022-10-10T01:20:30.100Z,101857.97
2022-10-10T01:23:18.434Z,101856.50
2022-10-10T01:26:11.968Z,101866.25
2022-10-10T01:29:07.389Z,101890.13
2022-10-10T01:31:42.177Z,101857.88
2022-10-10T01:34:21.637Z,101848.34
2022-10-10T01:37:08.777Z,101857.47
2022-10-10T01:39:41.898Z,101838.56
2022-10-10T01:42:28.392Z,101841.38
2022-10-10T01:44:58.808Z,101829.47
2022-10-10T01:47:28.885Z,101840.75
2022-10-10T01:50:03.174Z,101829.47
2022-10-10T01:53:03.814Z,101832.59
2022-10-10T01:56:02.199Z,101822.09
2022-10-10T01:58:39.613Z,101819.16
2022-10-10T02:01:17.295Z,101819.47
2022-10-10T02:03:55.365Z,101822.00
2022-10-10T02:06:36.778Z,101801.00
2022-10-10T02:09:14.882Z,101806.75
2022-10-10T02:11:46.727Z,101806.19
2022-10-10T02:14:24.253Z,101815.53
2022-10-10T02:16:59.363Z,101829.78
2022-10-10T02:19:32.421Z,101802.06
2022-10-10T02:22:03.638Z,101805.72
2022-10-10T02:24:34.136Z,101808.50
2022-10-10T02:27:12.960Z,101823.88
2022-10-10T02:29:45.576Z,101810.63
2022-10-10T02:32:38.129Z,101810.63
2022-10-10T02:35:14.532Z,101809.38
2022-10-10T02:37:46.172Z,101801.69
2022-10-10T02:40:22.584Z,101801.84
2022-10-10T02:42:55.782Z,101795.28
2022-10-10T02:45:26.927Z,101790.69
2022-10-10T02:47:57.324Z,101785.53
2022-10-10T02:50:28.227Z,101780.09
2022-10-10T02:52:59.879Z,101775.19
2022-10-10T02:55:30.161Z,101775.47
2022-10-10T02:58:00.665Z,101773.53
2022-10-10T03:00:31.203Z,101762.75
2022-10-10T03:03:01.522Z,101771.00
2022-10-10T03:05:31.634Z,101778.81
2022-10-10T03:08:01.674Z,101751.63
2022-10-10T03:10:31.621Z,101748.38
2022-10-10T03:13:01.582Z,101750.75
2022-10-10T03:15:30.857Z,101735.94
2022-10-10T03:18:01.008Z,101736.91
2022-10-10T03:20:31.282Z,101729.59
2022-10-10T03:23:01.403Z,101742.47
2022-10-10T03:25:31.780Z,101714.34
2022-10-10T03:28:01.752Z,101718.38
2022-10-10T03:30:31.766Z,101725.19
2022-10-10T03:33:01.747Z,101725.31
2022-10-10T03:35:32.125Z,101715.75
2022-10-10T03:38:03.069Z,101726.78
2022-10-10T03:40:33.435Z,101717.38
2022-10-10T03:43:03.501Z,101707.28
2022-10-10T03:45:33.812Z,101693.03
2022-10-10T03:48:03.891Z,101700.09
2022-10-10T03:50:34.100Z,101691.84
2022-10-10T03:53:04.334Z,101689.56
2022-10-10T03:55:34.615Z,101694.44
2022-10-10T03:58:04.641Z,101680.00
2022-10-10T04:00:34.767Z,101676.06
2022-10-10T04:03:07.807Z,101672.13
2022-10-10T04:05:40.117Z,101674.63
2022-10-10T04:08:17.682Z,101664.22
2022-10-10T04:10:53.851Z,101658.59
2022-10-10T04:13:26.821Z,101664.75
2022-10-10T04:15:59.048Z,101650.88
2022-10-10T04:18:28.605Z,101638.25
2022-10-10T04:20:59.571Z,101650.09
2022-10-10T04:23:29.494Z,101649.66
2022-10-10T04:25:59.406Z,101637.84
2022-10-10T04:28:29.596Z,101632.75
2022-10-10T04:30:59.639Z,101626.31
2022-10-10T04:33:29.658Z,101617.09
2022-10-10T04:36:00.095Z,101611.13
2022-10-10T04:38:31.317Z,101615.81
2022-10-10T04:41:00.660Z,101606.38
2022-10-10T04:43:30.700Z,101604.00
2022-10-10T04:46:00.808Z,101593.88
2022-10-10T04:48:30.838Z,101592.94
2022-10-10T04:51:00.984Z,101594.59
2022-10-10T04:53:30.792Z,101579.66
2022-10-10T04:56:00.866Z,101575.69
2022-10-10T04:58:32.536Z,101573.38
2022-10-10T05:01:03.149Z,101558.09
2022-10-10T05:03:33.319Z,101547.78
2022-10-10T05:06:03.538Z,101552.13
2022-10-10T05:08:33.428Z,101543.81
2022-10-10T05:11:03.771Z,101542.31
2022-10-10T05:13:33.770Z,101538.16
2022-10-10T05:16:03.800Z,101536.50
2022-10-10T05:18:33.800Z,101529.19
2022-10-10T05:21:04.082Z,101522.44
2022-10-10T05:23:34.838Z,101515.94
2022-10-10T05:26:04.987Z,101513.59
2022-10-10T05:28:37.790Z,101511.44
2022-10-10T05:31:08.409Z,101509.28
2022-10-10T05:33:38.606Z,101504.78
2022-10-10T05:36:14.599Z,101488.13
2022-10-10T05:38:44.712Z,101490.63
2022-10-10T05:41:14.765Z,101488.63
2022-10-10T05:43:44.902Z,101493.97
2022-10-10T05:46:15.859Z,101487.63
2022-10-10T05:48:46.001Z,101475.44
2022-10-10T05:51:16.068Z,101479.63
2022-10-10T05:53:46.151Z,101477.28
2022-10-10T05:56:19.371Z,101472.94
2022-10-10T05:58:50.296Z,101468.94
2022-10-10T06:01:20.660Z,101459.28
2022-10-10T06:03:53.998Z,101458.44
2022-10-10T06:06:26.176Z,101462.59
2022-10-10T06:08:57.377Z,101458.59
2022-10-10T06:11:27.450Z,101455.38
2022-10-10T06:13:58.342Z,101453.88
2022-10-10T06:16:29.829Z,101441.88
2022-10-10T06:19:00.123Z,101439.19
2022-10-10T06:21:30.921Z,101437.34
2022-10-10T06:24:02.242Z,101435.16
2022-10-10T06:26:33.109Z,101437.50
2022-10-10T06:29:03.278Z,101431.81
2022-10-10T06:31:32.525Z,101432.31
2022-10-10T06:34:02.670Z,101441.31
2022-10-10T06:36:32.783Z,101436.47
2022-10-10T06:39:02.750Z,101434.28
2022-10-10T06:41:32.077Z,101444.28
2022-10-10T06:44:02.068Z,101436.59
2022-10-10T06:46:32.069Z,101431.44
2022-10-10T06:49:02.321Z,101430.72
2022-10-10T06:51:33.016Z,101428.34
2022-10-10T06:54:04.109Z,101432.34
2022-10-10T06:56:34.138Z,101423.81
2022-10-10T06:59:04.288Z,101426.94
2022-10-10T07:01:34.456Z,101420.28
2022-10-10T07:04:04.689Z,101421.09
2022-10-10T07:06:35.187Z,101418.91
2022-10-10T07:09:06.767Z,101422.94
2022-10-10T07:11:37.060Z,101430.56
2022-10-10T07:14:08.586Z,101423.06
2022-10-10T07:16:39.135Z,101418.91
2022-10-10T07:19:09.432Z,101409.53
2022-10-10T07:21:39.314Z,101416.19
2022-10-10T07:24:10.350Z,101416.19
2022-10-10T07:26:41.933Z,101422.19
2022-10-10T07:29:12.169Z,101414.47
2022-10-10T07:31:42.082Z,101421.66
2022-10-10T07:34:12.175Z,101424.50
2022-10-10T07:36:42.507Z,101418.97
2022-10-10T07:39:16.935Z,101410.13
2022-10-10T07:41:47.276Z,101410.13
2022-10-10T07:44:17.862Z,101411.63
2022-10-10T07:46:47.975Z,101395.94
2022-10-10T07:49:18.520Z,101399.91
2022-10-10T07:51:47.801Z,101410.59
2022-10-10T07:54:17.919Z,101403.06
2022-10-10T07:56:47.714Z,101406.38
2022-10-10T07:59:17.861Z,101404.72
2022-10-10T08:01:48.500Z,101406.38
2022-10-10T08:04:19.578Z,101405.72
2022-10-10T08:06:50.283Z,101403.06
2022-10-10T08:09:20.790Z,101406.94
2022-10-10T08:11:50.733Z,101407.75
2022-10-10T08:14:20.735Z,101421.94
2022-10-10T08:16:51.821Z,101416.09
2022-10-10T08:19:22.628Z,101423.13
2022-10-10T08:21:52.892Z,101406.63
2022-10-10T08:24:23.033Z,101411.97
2022-10-10T08:26:53.152Z,101423.47
2022-10-10T08:29:23.117Z,101410.84
2022-10-10T08:31:53.192Z,101401.16
2022-10-10T08:34:23.303Z,101408.88
2022-10-10T08:36:53.214Z,101413.72
2022-10-10T08:39:23.263Z,101413.25
2022-10-10T08:42:02.481Z,101413.59
2022-10-10T08:44:53.537Z,101406.31
2022-10-10T08:47:28.901Z,101412.81
2022-10-10T08:50:37.292Z,101407.88
2022-10-10T08:53:33.351Z,101409.19
2022-10-10T08:56:06.839Z,101412.41
2022-10-10T08:58:47.126Z,101406.22
2022-10-10T09:01:21.880Z,101413.75
2022-10-10T09:03:55.358Z,101409.78
2022-10-10T09:06:44.021Z,101407.44
2022-10-10T09:09:19.890Z,101415.81
2022-10-10T09:12:12.216Z,101408.47
2022-10-10T09:15:05.323Z,101415.16
2022-10-10T09:17:53.700Z,101409.34
2022-10-10T09:20:42.490Z,101426.50
2022-10-10T09:23:44.977Z,101420.22
2022-10-10T09:26:17.782Z,101417.41
2022-10-10T09:28:57.367Z,101420.94
2022-10-10T09:31:30.325Z,101421.44
2022-10-10T09:34:22.719Z,101430.78
2022-10-10T09:36:58.490Z,101428.97
2022-10-10T09:39:45.870Z,101432.97
2022-10-10T09:42:27.703Z,101433.66
2022-10-10T09:44:57.720Z,101432.69
2022-10-10T09:47:27.697Z,101438.34
2022-10-10T09:49:58.087Z,101446.00
2022-10-10T09:52:33.808Z,101438.50
2022-10-10T09:55:16.719Z,101440.66
2022-10-10T09:57:47.165Z,101452.66
2022-10-10T10:00:25.052Z,101451.34
2022-10-10T10:03:19.323Z,101448.50
2022-10-10T10:05:56.788Z,101459.66
2022-10-10T10:08:33.494Z,101457.47
2022-10-10T10:11:05.134Z,101459.81
2022-10-10T10:13:39.705Z,101459.63
2022-10-10T10:16:15.812Z,101464.94
2022-10-10T10:18:48.950Z,101469.41
2022-10-10T10:21:23.616Z,101472.88
2022-10-10T10:24:00.761Z,101477.50
2022-10-10T10:26:31.697Z,101475.16
2022-10-10T10:29:01.731Z,101473.00
2022-10-10T10:32:02.489Z,101481.63
2022-10-10T10:34:39.537Z,101481.44
2022-10-10T10:37:33.877Z,101483.91
2022-10-10T10:40:25.795Z,101483.06
2022-10-10T10:43:19.963Z,101489.72
2022-10-10T10:46:16.049Z,101491.50
2022-10-10T10:48:56.640Z,101498.59
2022-10-10T10:51:45.468Z,101492.25
2022-10-10T10:54:45.579Z,101493.88
2022-10-10T10:57:51.226Z,101495.47
2022-10-10T11:01:19.927Z,101501.53
2022-10-10T11:05:20.077Z,101497.84
2022-10-10T11:07:17.703Z,101510.25
2022-10-10T11:09:56.089Z,101512.16
2022-10-10T11:12:34.708Z,101503.97
2022-10-10T11:16:01.500Z,101504.59
2022-10-10T11:18:32.476Z,101507.72
2022-10-10T11:21:25.459Z,101516.13
2022-10-10T11:24:16.318Z,101521.91
2022-10-10T11:26:56.356Z,101524.88
2022-10-10T11:29:36.687Z,101518.84
2022-10-10T11:35:08.946Z,101532.50
2022-10-10T11:37:47.616Z,101539.84
2022-10-10T11:40:59.296Z,101534.09
2022-10-10T11:43:50.857Z,101534.59
2022-10-10T11:46:34.022Z,101536.44
2022-10-10T11:49:19.650Z,101540.13
2022-10-10T11:52:15.033Z,101541.81
2022-10-10T11:54:57.638Z,101554.97
2022-10-10T11:57:52.444Z,101553.19
2022-10-10T12:00:22.667Z,101555.72
2022-10-10T12:02:59.469Z,101557.97
2022-10-10T12:05:32.302Z,101557.56
2022-10-10T12:08:30.481Z,101553.53
2022-10-10T12:11:13.723Z,101550.88
2022-10-10T12:13:51.136Z,101555.34
2022-10-10T12:16:30.217Z,101559.78
2022-10-10T12:19:25.280Z,101553.66
2022-10-10T12:22:03.687Z,101556.72
2022-10-10T12:24:42.332Z,101562.63
2022-10-10T12:27:29.204Z,101559.56
2022-10-10T12:29:59.916Z,101561.78
2022-10-10T12:32:43.649Z,101567.22
2022-10-10T12:35:40.378Z,101571.97
2022-10-10T12:38:15.555Z,101572.94
2022-10-10T12:41:12.348Z,101571.56
2022-10-10T12:44:22.307Z,101571.81
2022-10-10T12:47:16.862Z,101569.63
2022-10-10T12:49:58.894Z,101571.41
2022-10-10T12:52:37.496Z,101570.72
2022-10-10T12:55:19.298Z,101568.66
2022-10-10T12:57:52.322Z,101580.78
2022-10-10T13:00:24.657Z,101569.75
2022-10-10T13:03:06.548Z,101580.88
2022-10-10T13:05:41.845Z,101589.63
2022-10-10T13:08:22.413Z,101582.50
2022-10-10T13:11:18.774Z,101591.28
2022-10-10T13:13:54.481Z,101597.34
2022-10-10T13:16:34.029Z,101594.84
2022-10-10T13:19:04.388Z,101602.47
2022-10-10T13:21:36.900Z,101602.84
2022-10-10T13:24:15.839Z,101606.16
2022-10-10T13:26:54.978Z,101615.88
2022-10-10T13:29:37.780Z,101624.59
2022-10-10T13:32:31.836Z,101630.69
2022-10-10T13:35:09.269Z,101633.94
2022-10-10T13:37:39.716Z,101634.06
2022-10-10T13:40:17.019Z,101637.81
2022-10-10T13:42:49.961Z,101635.69
2022-10-10T13:45:34.514Z,101643.19
2022-10-10T13:48:04.774Z,101643.44
2022-10-10T13:50:36.928Z,101647.28
2022-10-10T13:53:32.044Z,101655.63
2022-10-10T13:56:09.486Z,101649.03
2022-10-10T13:58:51.240Z,101655.66
2022-10-10T14:01:31.089Z,101659.63
2022-10-10T14:04:23.429Z,101669.03
2022-10-10T14:07:06.806Z,101665.09
2022-10-10T14:09:57.319Z,101664.75
2022-10-10T14:12:50.430Z,101669.28
2022-10-10T14:15:45.516Z,101677.47
2022-10-10T14:18:27.277Z,101682.84
2022-10-10T14:20:57.827Z,101674.09
2022-10-10T14:23:28.354Z,101672.69
2022-10-10T14:26:00.411Z,101671.25
2022-10-10T14:28:37.107Z,101682.66
2022-10-10T14:31:08.009Z,101679.44
2022-10-10T14:33:38.327Z,101673.69
2022-10-10T14:36:09.067Z,101678.47
2022-10-10T14:38:39.538Z,101680.75
2022-10-10T14:41:14.015Z,101683.63
2022-10-10T14:43:46.067Z,101685.56
2022-10-10T14:46:22.952Z,101683.03
2022-10-10T14:48:54.017Z,101686.91
2022-10-10T14:51:33.232Z,101686.41
2022-10-10T14:54:12.403Z,101692.66
2022-10-10T14:57:09.306Z,101684.00
2022-10-10T14:59:49.449Z,101684.00
2022-10-10T15:02:23.331Z,101687.63
2022-10-10T15:04:54.792Z,101691.09
2022-10-10T15:07:26.575Z,101699.13
2022-10-10T15:12:47.940Z,101699.00
2022-10-10T15:15:19.586Z,101705.13
2022-10-10T15:17:51.201Z,101705.94
2022-10-10T15:20:25.535Z,101705.13
2022-10-10T15:22:56.549Z,101706.34
2022-10-10T15:25:32.385Z,101709.81
2022-10-10T15:28:07.527Z,101700.47
2022-10-10T15:30:42.773Z,101703.44
2022-10-10T15:33:14.731Z,101703.69
2022-10-10T15:36:07.851Z,101708.63
2022-10-10T15:38:39.221Z,101700.31
2022-10-10T15:41:12.391Z,101708.97
2022-10-10T15:43:55.889Z,101706.28
2022-10-10T15:46:28.629Z,101713.09
2022-10-10T15:49:04.466Z,101709.03
2022-10-10T15:51:34.816Z,101707.91
2022-10-10T15:54:05.401Z,101711.97
2022-10-10T15:56:35.571Z,101704.75
2022-10-10T15:59:07.614Z,101699.00
2022-10-10T16:01:38.405Z,101703.75
2022-10-10T16:04:08.819Z,101703.25
2022-10-10T16:06:39.003Z,101703.25
2022-10-10T16:09:27.298Z,101702.53
2022-10-10T16:11:58.448Z,101701.94
2022-10-10T16:14:30.033Z,101707.31
2022-10-10T16:17:03.870Z,101710.16
2022-10-10T16:19:34.260Z,101713.22
2022-10-10T16:22:04.850Z,101716.09
2022-10-10T16:24:34.863Z,101720.88
2022-10-10T16:27:05.282Z,101724.56
2022-10-10T16:29:35.757Z,101716.75
2022-10-10T16:32:05.944Z,101719.38
2022-10-10T16:34:36.603Z,101720.66
2022-10-10T16:37:06.872Z,101723.50
2022-10-10T16:39:37.054Z,101723.84
2022-10-10T16:42:07.837Z,101724.16
2022-10-10T16:44:37.957Z,101716.84
2022-10-10T16:47:08.817Z,101720.13
2022-10-10T16:49:40.050Z,101718.84
2022-10-10T16:52:10.619Z,101724.34
2022-10-10T16:54:40.570Z,101730.03
2022-10-10T16:57:10.522Z,101731.09
2022-10-10T16:59:41.590Z,101728.56
2022-10-10T17:02:15.190Z,101728.78
2022-10-10T17:04:45.717Z,101733.22
2022-10-10T17:07:15.767Z,101734.25
2022-10-10T17:09:46.667Z,101736.97
2022-10-10T17:12:16.893Z,101732.06
2022-10-10T17:14:47.109Z,101737.44
2022-10-10T17:17:18.859Z,101738.25
2022-10-10T17:19:50.490Z,101740.69
2022-10-10T17:22:21.346Z,101743.31
2022-10-10T17:24:51.486Z,101740.59
2022-10-10T17:27:21.629Z,101735.31
2022-10-10T17:29:54.992Z,101745.13
2022-10-10T17:32:25.302Z,101736.97
2022-10-10T17:34:56.857Z,101741.41
2022-10-10T17:37:27.289Z,101747.50
2022-10-10T17:39:58.102Z,101740.59
2022-10-10T17:42:28.502Z,101745.75
2022-10-10T17:45:00.691Z,101749.31
2022-10-10T17:47:30.944Z,101750.28
2022-10-10T17:50:01.405Z,101745.53
2022-10-10T17:52:31.459Z,101746.69
2022-10-10T17:55:01.324Z,101744.88
2022-10-10T17:57:31.634Z,101739.44
2022-10-10T18:00:01.602Z,101736.06
2022-10-10T18:02:34.245Z,101740.59
2022-10-10T18:05:04.772Z,101738.19
2022-10-10T18:07:34.883Z,101734.09
2022-10-10T18:10:05.336Z,101737.94
2022-10-10T18:12:36.030Z,101748.69
2022-10-10T18:15:05.822Z,101749.00
2022-10-10T18:17:35.989Z,101747.53
2022-10-10T18:20:06.389Z,101751.41
2022-10-10T18:22:36.441Z,101753.28
2022-10-10T18:25:06.860Z,101748.38
2022-10-10T18:27:36.912Z,101744.34
2022-10-10T18:30:08.114Z,101746.44
2022-10-10T18:32:38.461Z,101747.50
2022-10-10T18:35:09.614Z,101746.03
2022-10-10T18:37:40.081Z,101745.25
2022-10-10T18:40:11.119Z,101741.81
2022-10-10T18:42:42.596Z,101740.13
2022-10-10T18:45:13.265Z,101730.66
2022-10-10T18:47:43.629Z,101745.50
2022-10-10T18:50:13.624Z,101738.72
2022-10-10T18:52:44.083Z,101732.75
2022-10-10T18:55:17.684Z,101731.28
2022-10-10T18:57:48.072Z,101738.41
2022-10-10T19:00:20.029Z,101733.34
2022-10-10T19:02:50.227Z,101736.00
2022-10-10T19:05:20.369Z,101736.91
2022-10-10T19:07:50.492Z,101741.34
2022-10-10T19:10:20.630Z,101744.94
2022-10-10T19:12:51.831Z,101749.41
2022-10-10T19:15:22.068Z,101739.97
2022-10-10T19:17:52.531Z,101757.69
2022-10-10T19:20:25.835Z,101761.47
2022-10-10T19:22:59.536Z,101749.56
2022-10-10T19:25:31.382Z,101750.72
2022-10-10T19:28:01.708Z,101747.53
2022-10-10T19:30:30.965Z,101742.56
2022-10-10T19:33:01.421Z,101742.72
2022-10-10T19:35:31.517Z,101746.44
2022-10-10T19:38:01.683Z,101742.03
2022-10-10T19:40:31.753Z,101744.13
2022-10-10T19:43:01.882Z,101750.41
2022-10-10T19:45:31.780Z,101747.13
2022-10-10T19:48:01.944Z,101748.19
2022-10-10T19:50:32.231Z,101745.94
2022-10-10T19:53:05.038Z,101754.00
2022-10-10T19:55:34.824Z,101753.44
2022-10-10T19:58:05.019Z,101754.97
2022-10-10T20:00:35.342Z,101754.50
2022-10-10T20:03:05.528Z,101749.72
2022-10-10T20:05:35.535Z,101745.03
2022-10-10T20:08:05.656Z,101749.53
2022-10-10T20:10:35.722Z,101750.66
2022-10-10T20:13:05.636Z,101754.38
2022-10-10T20:15:35.556Z,101747.47
2022-10-10T20:18:05.769Z,101747.56
2022-10-10T20:20:35.944Z,101749.44
2022-10-10T20:23:07.685Z,101745.03
2022-10-10T20:25:43.088Z,101745.84
2022-10-10T20:28:15.529Z,101744.09
2022-10-10T20:30:49.711Z,101744.75
2022-10-10T20:33:23.596Z,101747.25
2022-10-10T20:35:56.095Z,101755.41
2022-10-10T20:38:27.162Z,101757.38
2022-10-10T20:40:57.248Z,101754.19
2022-10-10T20:43:26.683Z,101758.50
2022-10-10T20:45:56.653Z,101763.06
2022-10-10T20:48:26.662Z,101768.53
2022-10-10T20:50:56.659Z,101756.53
2022-10-10T20:53:26.624Z,101761.09
2022-10-10T20:55:56.867Z,101757.91
2022-10-10T20:58:26.811Z,101765.03
2022-10-10T21:01:18.708Z,101762.56
2022-10-10T21:03:49.919Z,101771.00
2022-10-10T21:06:25.042Z,101769.69
2022-10-10T21:08:56.068Z,101770.66
2022-10-10T21:11:26.343Z,101773.25
2022-10-10T21:13:58.933Z,101779.44
2022-10-10T21:16:32.574Z,101775.31
2022-10-10T21:19:03.688Z,101776.41
2022-10-10T21:21:36.307Z,101780.16
2022-10-10T21:24:09.602Z,101782.94
2022-10-10T21:26:42.748Z,101778.66
2022-10-10T21:29:13.449Z,101784.63
2022-10-10T21:31:44.237Z,101784.81
2022-10-10T21:34:19.970Z,101789.28
2022-10-10T21:36:50.375Z,101790.34
2022-10-10T21:39:20.297Z,101786.84
2022-10-10T21:41:50.234Z,101793.69
2022-10-10T21:44:20.694Z,101787.44
2022-10-10T21:46:52.496Z,101786.41
2022-10-10T21:49:22.494Z,101779.47
2022-10-10T21:51:52.525Z,101777.91
2022-10-10T21:54:22.516Z,101785.75
2022-10-10T21:56:52.582Z,101776.19
2022-10-10T21:59:22.825Z,101776.13
2022-10-10T22:01:52.795Z,101776.03
2022-10-10T22:04:25.536Z,101780.31
2022-10-10T22:06:58.804Z,101776.03
2022-10-10T22:09:28.785Z,101781.28
2022-10-10T22:11:59.314Z,101776.28
2022-10-10T22:14:29.687Z,101775.44
2022-10-10T22:16:59.816Z,101778.31
2022-10-10T22:19:29.793Z,101782.06
2022-10-10T22:21:59.802Z,101779.69
2022-10-10T22:24:32.592Z,101785.00
2022-10-10T22:27:03.089Z,101788.50
2022-10-10T22:29:33.744Z,101793.81
2022-10-10T22:32:04.054Z,101782.94
2022-10-10T22:34:34.500Z,101793.56
2022-10-10T22:37:04.640Z,101796.38
2022-10-10T22:39:34.705Z,101795.72
2022-10-10T22:42:04.711Z,101800.38
2022-10-10T22:44:34.725Z,101798.66
2022-10-10T22:47:04.727Z,101805.84
2022-10-10T22:49:36.211Z,101808.53
2022-10-10T22:52:11.465Z,101803.22
2022-10-10T22:54:41.787Z,101809.13
2022-10-10T22:57:13.286Z,101807.94
2022-10-10T22:59:43.790Z,101804.03
2022-10-10T23:02:13.881Z,101809.88
2022-10-10T23:04:43.926Z,101812.06
2022-10-10T23:07:16.888Z,101817.03
2022-10-10T23:09:47.842Z,101813.13
2022-10-10T23:12:18.266Z,101817.94
2022-10-10T23:14:48.825Z,101815.53
2022-10-10T23:17:19.024Z,101817.59
2022-10-10T23:19:49.220Z,101814.47
2022-10-10T23:22:19.379Z,101823.47
2022-10-10T23:24:49.356Z,101822.94
2022-10-10T23:27:19.340Z,101822.47
2022-10-10T23:29:49.207Z,101821.16
2022-10-10T23:32:19.447Z,101824.94
2022-10-10T23:34:49.393Z,101819.25
2022-10-10T23:37:19.493Z,101824.84
2022-10-10T23:39:49.904Z,101826.91
2022-10-10T23:42:19.978Z,101834.97
2022-10-10T23:44:50.083Z,101832.72
2022-10-10T23:47:20.066Z,101836.53
2022-10-10T23:49:50.097Z,101834.19
2022-10-10T23:52:20.004Z,101843.16
2022-10-10T23:54:50.145Z,101849.53
2022-10-10T23:57:20.069Z,101850.72
2022-10-10T23:59:50.016Z,101856.09
